23:09
Airports
History
Links
Donate
Help keep this website running!
PayPal
Bitcoin
Information on this page is community maintained and may be outdated or inaccurate and is intended for reference only or PC simulator navigating!
Always use approved charts for navigating.
P27
Potters Field
Potters Field (P27)
Stanfield, Arizona, United States (85172)
4
Lat/Lng:32° 52' 26.19" N / 111° 57' 35.49" W
32.873942 / -111.959858
Elevation:1309'ft 399mMSL
ID / ICAO:P27
Runways:1
Longest:(18-36) 724.2m 2,376ft Dirt
Distance To
Airport ID:
Nearby VORs <50NM
Nearby NDBs
Nearby WeatherUpdated 04-29-17 22:56 GMT
Nearby weather at KCGZ, Casa Grande Muni located 12.5 nautical miles from P27
Altimeter: 29.92
Visibility: 10.0 statute miles
Wind: 16 knots (300°)
Temp: 25°c 77°f
Humidity: 11.4%

METAR: KCGZ 292256Z AUTO 30016KT 10SM CLR 25/M07 A2992 RMK AO2 SLP121 T02501072 $

(Powered by phpweather)
Runway 18 / 36
Dimensions:724.2 x 15.2m 2376' x 50'ft
Surface:Dirt
Runway 18 [A]Runway 36 [B]
Heading:191°TH 011°TH
Lat:
Lng:
32° 52' 37.78"N
111° 57' 32.56"W
32° 52' 14.6"N
111° 57' 38.42"W
Google Map
Nearby Airports
(U) Ak-chin Rgnl 8.4 NM
A39 NNE 16°
(U) Ak Chin Community Airfield 8.6 NM
E31 NNW 333°
(R) Donnelly Residence 9.9 NM
2AZ5 W 274°
(U) Casa Grande Muni 12.5 NM
KCGZ (WX) ENE 63°
(R) U Of A Maricopa Ag Center 14.3 NM
3AZ2 N 354°
(R) G.m. Ranch 16.2 NM
AZ61 W 276°
(R) Millar 16.4 NM
2AZ4 NW 319°
VFR Chart
Flight Planning at SkyVector.com